createdAt,value
2023-05-09T00:00:56.910Z,13.80
2023-05-09T00:01:56.926Z,13.68
2023-05-09T00:02:56.978Z,13.69
2023-05-09T00:03:56.916Z,13.84
2023-05-09T00:04:56.917Z,13.08
2023-05-09T00:05:56.911Z,12.69
2023-05-09T00:06:56.922Z,13.79
2023-05-09T00:07:56.937Z,12.89
2023-05-09T00:08:56.927Z,13.70
2023-05-09T00:09:56.952Z,13.13
2023-05-09T00:10:57.050Z,13.43
2023-05-09T00:11:56.931Z,13.22
2023-05-09T00:12:57.001Z,13.53
2023-05-09T00:13:56.936Z,13.09
2023-05-09T00:14:56.929Z,12.83
2023-05-09T00:15:56.921Z,12.41
2023-05-09T00:16:57.004Z,13.61
2023-05-09T00:17:56.999Z,12.73
2023-05-09T00:18:56.935Z,14.07
2023-05-09T00:19:56.931Z,12.68
2023-05-09T00:20:56.938Z,12.84
2023-05-09T00:21:56.918Z,12.64
2023-05-09T00:22:56.929Z,12.86
2023-05-09T00:23:56.934Z,14.00
2023-05-09T00:24:56.928Z,12.98
2023-05-09T00:25:56.921Z,12.03
2023-05-09T00:26:57.057Z,13.76
2023-05-09T00:27:56.935Z,11.67
2023-05-09T00:28:56.924Z,12.73
2023-05-09T00:29:56.940Z,12.21
2023-05-09T00:30:56.918Z,12.05
2023-05-09T00:31:56.947Z,12.81
2023-05-09T00:32:56.988Z,12.71
2023-05-09T00:33:56.923Z,13.11
2023-05-09T00:34:56.930Z,12.10
2023-05-09T00:35:56.933Z,11.02
2023-05-09T00:36:56.940Z,12.05
2023-05-09T00:37:56.935Z,11.67
2023-05-09T00:38:56.939Z,11.80
2023-05-09T00:39:56.938Z,12.10
2023-05-09T00:40:56.944Z,12.65
2023-05-09T00:41:56.948Z,11.58
2023-05-09T00:42:57.058Z,12.36
2023-05-09T00:43:56.935Z,12.62
2023-05-09T00:44:56.938Z,12.82
2023-05-09T00:45:56.999Z,12.27
2023-05-09T00:46:56.933Z,12.67
2023-05-09T00:47:56.983Z,11.79
2023-05-09T00:48:56.932Z,12.49
2023-05-09T00:49:56.965Z,13.26
2023-05-09T00:50:58.552Z,13.71
2023-05-09T00:51:57.055Z,11.85
2023-05-09T00:52:57.077Z,12.84
2023-05-09T00:53:57.087Z,11.58
2023-05-09T00:54:57.090Z,11.72
2023-05-09T00:55:57.103Z,12.78
2023-05-09T00:56:57.121Z,12.33
2023-05-09T00:57:57.126Z,11.82
2023-05-09T00:58:57.260Z,11.87
2023-05-09T00:59:57.127Z,12.40
2023-05-09T01:00:57.167Z,12.51
2023-05-09T01:01:57.158Z,12.24
2023-05-09T01:02:57.283Z,12.07
2023-05-09T01:03:57.165Z,12.24
2023-05-09T01:04:57.168Z,12.35
2023-05-09T01:05:57.174Z,11.96
2023-05-09T01:06:57.174Z,12.43
2023-05-09T01:07:57.175Z,12.73
2023-05-09T01:08:57.181Z,12.47
2023-05-09T01:09:57.175Z,12.24
2023-05-09T01:10:57.185Z,11.36
2023-05-09T01:11:57.229Z,12.22
2023-05-09T01:12:57.267Z,11.96
2023-05-09T01:13:57.211Z,12.42
2023-05-09T01:14:57.327Z,12.55
2023-05-09T01:15:57.310Z,11.60
2023-05-09T01:16:57.219Z,11.63
2023-05-09T01:17:57.251Z,10.95
2023-05-09T01:18:57.226Z,12.11
2023-05-09T01:19:57.235Z,11.75
2023-05-09T01:20:57.258Z,11.39
2023-05-09T01:21:57.253Z,11.65
2023-05-09T01:22:57.260Z,11.77
2023-05-09T01:23:57.272Z,13.06
2023-05-09T01:24:57.302Z,11.66
2023-05-09T01:25:57.306Z,12.31
2023-05-09T01:26:57.315Z,11.61
2023-05-09T01:27:57.314Z,11.70
2023-05-09T01:28:57.314Z,12.24
2023-05-09T01:29:57.343Z,11.14
2023-05-09T01:30:57.614Z,11.29
2023-05-09T01:31:57.346Z,12.71
2023-05-09T01:32:57.374Z,12.51
2023-05-09T01:33:57.364Z,11.37
2023-05-09T01:34:57.356Z,11.00
2023-05-09T01:35:57.358Z,12.32
2023-05-09T01:36:57.370Z,11.66
2023-05-09T01:37:57.368Z,11.57
2023-05-09T01:38:57.382Z,11.63
2023-05-09T01:39:57.384Z,12.47
2023-05-09T01:40:57.395Z,11.82
2023-05-09T01:41:57.403Z,11.58
2023-05-09T01:42:57.417Z,11.90
2023-05-09T01:43:57.482Z,12.71
2023-05-09T01:44:57.427Z,11.79
2023-05-09T01:45:57.446Z,11.90
2023-05-09T01:46:57.638Z,12.06
2023-05-09T01:47:57.502Z,12.10
2023-05-09T01:48:57.453Z,12.12
2023-05-09T01:49:57.479Z,12.05
2023-05-09T01:50:57.486Z,11.33
2023-05-09T01:51:57.518Z,11.12
2023-05-09T01:52:57.523Z,11.18
2023-05-09T01:53:57.561Z,11.78
2023-05-09T01:54:57.555Z,11.60
2023-05-09T01:55:57.586Z,12.62
2023-05-09T01:56:57.588Z,11.84
2023-05-09T01:57:57.627Z,12.68
2023-05-09T01:58:57.657Z,11.53
2023-05-09T01:59:57.655Z,11.54
2023-05-09T02:00:57.708Z,12.47
2023-05-09T02:01:57.781Z,12.29
2023-05-09T02:02:57.976Z,11.34
2023-05-09T02:03:57.808Z,11.84
2023-05-09T02:04:57.832Z,10.57
2023-05-09T02:05:57.847Z,11.38
2023-05-09T02:06:57.882Z,11.22
2023-05-09T02:07:57.903Z,11.30
2023-05-09T02:08:57.939Z,11.85
2023-05-09T02:09:57.962Z,11.22
2023-05-09T02:10:57.996Z,11.42
2023-05-09T02:11:58.005Z,11.37
2023-05-09T02:12:58.063Z,10.95
2023-05-09T02:13:58.037Z,11.71
2023-05-09T02:14:58.065Z,11.34
2023-05-09T02:15:58.072Z,10.95
2023-05-09T02:16:58.174Z,11.85
2023-05-09T02:17:58.112Z,10.73
2023-05-09T02:18:58.274Z,11.84
2023-05-09T02:19:58.140Z,12.06
2023-05-09T02:20:58.196Z,11.56
2023-05-09T02:21:58.186Z,11.76
2023-05-09T02:22:58.185Z,11.19
2023-05-09T02:23:58.223Z,11.54
2023-05-09T02:24:58.243Z,12.35
2023-05-09T02:25:58.258Z,11.41
2023-05-09T02:26:58.263Z,11.31
2023-05-09T02:27:58.285Z,11.61
2023-05-09T02:28:58.281Z,11.70
2023-05-09T02:29:58.273Z,11.54
2023-05-09T02:30:58.277Z,11.19
2023-05-09T02:31:58.308Z,12.25
2023-05-09T02:32:58.339Z,12.01
2023-05-09T02:33:58.339Z,10.66
2023-05-09T02:34:58.499Z,12.59
2023-05-09T02:35:58.347Z,11.04
2023-05-09T02:36:58.349Z,11.53
2023-05-09T02:37:58.365Z,10.99
2023-05-09T02:38:58.437Z,11.78
2023-05-09T02:39:58.374Z,11.29
2023-05-09T02:40:58.376Z,10.85
2023-05-09T02:41:58.382Z,10.96
2023-05-09T02:42:58.374Z,10.62
2023-05-09T02:43:58.394Z,11.59
2023-05-09T02:44:58.404Z,10.96
2023-05-09T02:45:58.429Z,11.58
2023-05-09T02:46:58.404Z,11.70
2023-05-09T02:47:58.478Z,11.44
2023-05-09T02:48:58.415Z,12.20
2023-05-09T02:49:58.411Z,10.89
2023-05-09T02:50:58.551Z,11.65
2023-05-09T02:51:58.444Z,11.32
2023-05-09T02:52:58.441Z,11.79
2023-05-09T02:53:58.473Z,10.69
2023-05-09T02:54:58.490Z,11.29
2023-05-09T02:55:58.495Z,10.87
2023-05-09T02:56:58.528Z,10.73
2023-05-09T02:58:12.022Z,11.29
2023-05-09T02:58:58.559Z,10.86
2023-05-09T02:59:58.545Z,11.11
2023-05-09T03:00:58.546Z,10.58
2023-05-09T03:01:58.555Z,11.75
2023-05-09T03:02:58.613Z,11.20
2023-05-09T03:03:58.772Z,9.99
2023-05-09T03:04:58.580Z,11.52
2023-05-09T03:05:58.587Z,10.09
2023-05-09T03:06:58.706Z,10.35
2023-05-09T03:07:58.597Z,9.96
2023-05-09T03:08:58.607Z,10.96
2023-05-09T03:09:58.596Z,11.60
2023-05-09T03:10:58.589Z,10.34
2023-05-09T03:11:58.590Z,12.22
2023-05-09T03:12:58.633Z,11.11
2023-05-09T03:13:58.603Z,11.01
2023-05-09T03:14:58.594Z,11.08
2023-05-09T03:15:58.638Z,11.48
2023-05-09T03:16:58.629Z,11.08
2023-05-09T03:17:58.615Z,10.56
2023-05-09T03:18:58.609Z,10.98
2023-05-09T03:19:58.625Z,10.23
2023-05-09T03:20:58.613Z,9.93
2023-05-09T03:21:58.621Z,10.03
2023-05-09T03:22:58.741Z,10.60
2023-05-09T03:23:58.635Z,10.30
2023-05-09T03:24:58.695Z,10.64
2023-05-09T03:25:58.646Z,11.41
2023-05-09T03:26:58.639Z,11.37
2023-05-09T03:27:58.649Z,11.57
2023-05-09T03:28:58.665Z,10.82
2023-05-09T03:29:58.659Z,10.45
2023-05-09T03:30:58.724Z,10.10
2023-05-09T03:31:58.664Z,11.60
2023-05-09T03:32:58.726Z,11.11
2023-05-09T03:33:58.678Z,10.52
2023-05-09T03:34:58.682Z,10.60
2023-05-09T03:35:58.684Z,10.51
2023-05-09T03:36:58.685Z,11.66
2023-05-09T03:37:58.691Z,10.59
2023-05-09T03:38:58.821Z,11.38
2023-05-09T03:39:58.711Z,11.34
2023-05-09T03:40:58.695Z,10.91
2023-05-09T03:41:58.695Z,10.83
2023-05-09T03:42:58.703Z,11.22
2023-05-09T03:43:58.715Z,11.47
2023-05-09T03:44:58.707Z,11.00
2023-05-09T03:45:58.710Z,11.29
2023-05-09T03:46:59.565Z,10.74
2023-05-09T03:47:58.808Z,10.08
2023-05-09T03:48:58.735Z,11.20
2023-05-09T03:49:58.737Z,11.54
2023-05-09T03:50:58.729Z,10.84
2023-05-09T03:51:58.730Z,11.02
2023-05-09T03:52:58.739Z,10.30
2023-05-09T03:53:58.752Z,10.67
2023-05-09T03:54:58.871Z,11.37
2023-05-09T03:55:58.748Z,9.89
2023-05-09T03:56:58.757Z,11.31
2023-05-09T03:57:58.765Z,10.52
2023-05-09T03:58:58.757Z,9.76
2023-05-09T03:59:58.774Z,10.24
2023-05-09T04:00:58.775Z,10.41
2023-05-09T04:01:58.803Z,9.54
2023-05-09T04:02:58.857Z,9.95
2023-05-09T04:03:58.786Z,10.09
2023-05-09T04:04:58.775Z,10.80
2023-05-09T04:05:58.768Z,10.32
2023-05-09T04:06:58.764Z,10.90
2023-05-09T04:07:58.758Z,10.43
2023-05-09T04:08:58.773Z,9.99
2023-05-09T04:09:58.766Z,10.31
2023-05-09T04:10:58.888Z,10.58
2023-05-09T04:11:58.758Z,11.34
2023-05-09T04:12:58.789Z,9.88
2023-05-09T04:13:58.772Z,9.95
2023-05-09T04:14:58.775Z,9.91
2023-05-09T04:15:58.780Z,10.99
2023-05-09T04:16:58.801Z,11.49
2023-05-09T04:17:58.811Z,10.80
2023-05-09T04:18:58.792Z,10.28
2023-05-09T04:19:58.785Z,10.53
2023-05-09T04:20:58.776Z,10.79
2023-05-09T04:21:58.788Z,9.57
2023-05-09T04:22:58.808Z,11.10
2023-05-09T04:23:58.805Z,11.03
2023-05-09T04:24:58.783Z,10.28
2023-05-09T04:25:58.787Z,10.88
2023-05-09T04:26:58.914Z,10.30
2023-05-09T04:27:58.797Z,9.72
2023-05-09T04:28:58.795Z,10.52
2023-05-09T04:29:58.806Z,10.57
2023-05-09T04:30:58.884Z,9.88
2023-05-09T04:31:58.927Z,11.44
2023-05-09T04:32:58.943Z,11.24
2023-05-09T04:33:58.808Z,11.43
2023-05-09T04:34:58.815Z,10.05
2023-05-09T04:35:58.812Z,10.33
2023-05-09T04:36:59.135Z,9.90
2023-05-09T04:37:58.799Z,10.29
2023-05-09T04:38:58.802Z,10.18
2023-05-09T04:39:58.814Z,10.23
2023-05-09T04:40:58.810Z,10.53
2023-05-09T04:41:58.811Z,10.23
2023-05-09T04:42:58.977Z,10.15
2023-05-09T04:43:58.829Z,10.39
2023-05-09T04:44:58.851Z,10.71
2023-05-09T04:45:58.930Z,10.51
2023-05-09T04:46:58.873Z,10.22
2023-05-09T04:47:58.963Z,10.01
2023-05-09T04:48:58.870Z,9.13
2023-05-09T04:49:58.876Z,10.07
2023-05-09T04:50:58.878Z,10.49
2023-05-09T04:51:58.899Z,10.96
2023-05-09T04:52:58.896Z,9.56
2023-05-09T04:53:58.906Z,9.68
2023-05-09T04:54:58.921Z,10.57
2023-05-09T04:55:58.925Z,9.44
2023-05-09T04:57:09.876Z,10.08
2023-05-09T04:57:58.932Z,9.49
2023-05-09T04:58:59.053Z,10.72
2023-05-09T04:59:58.937Z,10.55
2023-05-09T05:00:58.917Z,10.47
2023-05-09T05:01:59.018Z,10.14
2023-05-09T05:02:58.946Z,9.85
2023-05-09T05:03:58.905Z,11.12
2023-05-09T05:05:18.026Z,9.82
2023-05-09T05:05:58.902Z,9.70
2023-05-09T05:06:58.896Z,9.75
2023-05-09T05:07:58.894Z,10.12
2023-05-09T05:08:58.885Z,9.56
2023-05-09T05:09:58.904Z,10.26
2023-05-09T05:10:58.910Z,10.68
2023-05-09T05:12:02.401Z,9.90
2023-05-09T05:12:58.963Z,10.45
2023-05-09T05:13:58.890Z,9.80
2023-05-09T05:14:58.998Z,10.42
2023-05-09T05:15:58.994Z,9.98
2023-05-09T05:16:58.891Z,8.74
2023-05-09T05:17:58.920Z,9.04
2023-05-09T05:18:59.293Z,9.07
2023-05-09T05:19:58.864Z,9.13
2023-05-09T05:20:58.913Z,8.25
2023-05-09T05:21:58.862Z,7.99
2023-05-09T05:22:59.305Z,7.78
2023-05-09T05:23:58.861Z,7.88
2023-05-09T05:24:58.865Z,8.23
2023-05-09T05:25:58.874Z,7.88
2023-05-09T05:26:58.879Z,7.59
2023-05-09T05:27:59.299Z,7.38
2023-05-09T05:28:58.891Z,7.17
2023-05-09T05:29:58.900Z,7.97
2023-05-09T05:30:59.000Z,8.13
2023-05-09T05:31:59.321Z,7.72
2023-05-09T05:32:58.906Z,7.20
2023-05-09T05:33:58.870Z,8.16
2023-05-09T05:34:58.867Z,6.77
2023-05-09T05:35:58.898Z,6.98
2023-05-09T05:36:58.972Z,6.71
2023-05-09T05:37:59.309Z,7.45
2023-05-09T05:38:58.905Z,6.44
2023-05-09T05:39:58.874Z,6.79
2023-05-09T05:41:02.106Z,6.33
2023-05-09T05:41:58.936Z,6.58
2023-05-09T05:42:59.300Z,5.96
2023-05-09T05:44:14.493Z,6.16
2023-05-09T05:44:58.877Z,6.74
2023-05-09T05:45:58.911Z,5.75
2023-05-09T05:46:59.055Z,6.36
2023-05-09T05:47:59.357Z,6.67
2023-05-09T05:48:58.879Z,6.27
2023-05-09T05:49:58.884Z,6.19
2023-05-09T05:50:58.870Z,5.60
2023-05-09T05:51:58.880Z,6.76
2023-05-09T12:42:16.430Z,1.78
2023-05-09T12:43:17.117Z,1.48
2023-05-09T12:44:17.082Z,2.09
2023-05-09T12:45:17.589Z,1.73
2023-05-09T12:46:17.128Z,1.84
2023-05-09T12:47:17.113Z,2.05
2023-05-09T12:48:17.034Z,1.98
2023-05-09T12:49:17.024Z,1.80
2023-05-09T12:50:17.297Z,2.26
2023-05-09T12:51:17.000Z,1.77
2023-05-09T12:52:16.997Z,3.15
2023-05-09T12:53:16.976Z,2.90
2023-05-09T12:54:16.968Z,2.33
2023-05-09T12:55:17.056Z,3.26
2023-05-09T12:56:16.978Z,2.50
2023-05-09T12:57:16.960Z,2.67
2023-05-09T12:58:17.127Z,3.09
2023-05-09T12:59:16.946Z,3.09
2023-05-09T13:00:17.317Z,3.14
2023-05-09T13:01:16.970Z,3.70
2023-05-09T13:02:16.985Z,3.49
2023-05-09T13:03:16.967Z,3.80
2023-05-09T13:04:16.931Z,3.27
2023-05-09T13:05:17.142Z,3.01
2023-05-09T13:06:16.947Z,3.28
2023-05-09T13:07:17.002Z,3.01
2023-05-09T13:08:17.024Z,2.63
2023-05-09T13:09:17.060Z,2.81
2023-05-09T13:10:17.117Z,1.98
2023-05-09T13:11:17.333Z,2.05
2023-05-09T13:12:17.317Z,2.21
2023-05-09T13:13:18.199Z,1.81
2023-05-09T13:14:17.244Z,1.66
2023-05-09T13:15:17.669Z,2.70
2023-05-09T13:16:20.353Z,1.63
2023-05-09T13:17:17.128Z,1.87
2023-05-09T13:18:17.109Z,1.42
2023-05-09T13:19:17.131Z,1.69
2023-05-09T13:20:17.334Z,2.03
2023-05-09T13:21:17.307Z,1.85
2023-05-09T13:22:17.065Z,1.53
2023-05-09T13:23:17.053Z,2.36
2023-05-09T13:24:17.038Z,1.76
2023-05-09T13:25:17.060Z,1.58
2023-05-09T13:26:17.025Z,1.92
2023-05-09T13:27:17.029Z,1.58
2023-05-09T13:28:17.032Z,2.21
2023-05-09T13:29:16.995Z,1.91
2023-05-09T13:30:17.605Z,1.62
2023-05-09T13:31:17.451Z,1.33
2023-05-09T13:32:16.988Z,1.41
2023-05-09T13:33:25.916Z,1.42
2023-05-09T13:34:16.926Z,1.63
2023-05-09T13:35:16.931Z,1.59
2023-05-09T13:36:16.909Z,1.70
2023-05-09T13:37:16.902Z,1.55
2023-05-09T13:38:17.326Z,1.56
2023-05-09T13:39:16.912Z,1.90
2023-05-09T13:40:17.584Z,3.82
2023-05-09T13:41:17.329Z,4.05
2023-05-09T13:42:18.984Z,3.82
2023-05-09T13:43:16.859Z,4.26
2023-05-09T13:44:16.853Z,4.82
2023-05-09T13:45:17.445Z,4.65
2023-05-09T13:46:17.053Z,4.58
2023-05-09T13:47:16.846Z,4.66
2023-05-09T13:48:16.843Z,4.18
2023-05-09T13:49:16.840Z,4.11
2023-05-09T13:50:17.049Z,4.59
2023-05-09T13:51:16.825Z,4.27
2023-05-09T13:52:16.835Z,4.16
2023-05-09T13:53:16.836Z,3.86
2023-05-09T13:54:16.808Z,3.24
2023-05-09T13:55:16.828Z,3.19
2023-05-09T13:56:16.801Z,2.92
2023-05-09T13:57:16.801Z,2.18
2023-05-09T13:58:16.808Z,3.18
2023-05-09T13:59:16.806Z,3.07
2023-05-09T14:00:17.146Z,3.28
2023-05-09T14:01:16.826Z,4.62
2023-05-09T14:02:16.966Z,4.27
2023-05-09T14:03:16.847Z,4.61
2023-05-09T14:04:16.906Z,4.49
2023-05-09T14:05:16.976Z,4.56
2023-05-09T14:06:16.949Z,4.36
2023-05-09T14:07:17.014Z,5.17
2023-05-09T14:08:17.058Z,5.37
2023-05-09T14:09:17.107Z,5.57
2023-05-09T14:10:17.368Z,4.56
2023-05-09T14:11:17.241Z,5.02
2023-05-09T14:12:17.292Z,5.08
2023-05-09T14:13:17.413Z,5.01
2023-05-09T14:14:17.374Z,5.14
2023-05-09T14:15:17.410Z,5.20
2023-05-09T14:16:17.520Z,5.33
2023-05-09T14:17:17.495Z,4.47
2023-05-09T14:18:20.028Z,4.87
2023-05-09T14:19:17.535Z,4.57
2023-05-09T14:20:17.677Z,5.01
2023-05-09T14:21:17.506Z,4.68
2023-05-09T14:22:17.492Z,4.11
2023-05-09T14:23:17.512Z,4.62
2023-05-09T14:24:17.523Z,4.58
2023-05-09T14:25:17.500Z,4.37
2023-05-09T14:26:17.487Z,3.89
2023-05-09T14:27:17.492Z,4.29
2023-05-09T14:28:17.511Z,3.97
2023-05-09T14:29:17.491Z,4.24
2023-05-09T14:30:17.620Z,4.55
2023-05-09T14:31:17.553Z,4.52
2023-05-09T14:32:17.484Z,3.86
2023-05-09T14:33:17.522Z,4.15
2023-05-09T14:34:17.612Z,4.19
2023-05-09T14:35:17.508Z,3.46
2023-05-09T14:36:17.851Z,3.51
2023-05-09T14:37:17.484Z,3.55
2023-05-09T14:38:17.483Z,3.74
2023-05-09T14:39:17.473Z,3.56
2023-05-09T14:40:18.043Z,3.94
2023-05-09T14:41:18.595Z,3.91
2023-05-09T14:42:17.464Z,3.66
2023-05-09T14:43:17.471Z,2.79
2023-05-09T14:44:17.472Z,3.51
2023-05-09T14:45:17.473Z,3.57
2023-05-09T14:46:17.473Z,3.50
2023-05-09T14:47:17.447Z,3.48
2023-05-09T14:48:17.488Z,3.00
2023-05-09T14:49:17.450Z,2.98
2023-05-09T14:50:17.755Z,2.86
2023-05-09T14:51:17.466Z,3.05
2023-05-09T14:52:17.448Z,3.46
2023-05-09T14:53:17.448Z,3.15
2023-05-09T14:54:17.448Z,3.20
2023-05-09T14:55:17.447Z,2.73
2023-05-09T14:56:17.441Z,3.20
2023-05-09T14:57:17.448Z,2.57
2023-05-09T14:58:17.438Z,2.70
2023-05-09T14:59:18.351Z,2.87
2023-05-09T15:00:21.764Z,2.61
2023-05-09T15:01:17.907Z,3.05
2023-05-09T15:02:17.449Z,2.56
2023-05-09T15:03:17.429Z,2.73
2023-05-09T15:04:17.455Z,3.13
2023-05-09T15:05:17.439Z,2.73
2023-05-09T15:06:17.567Z,2.32
2023-05-09T15:07:17.438Z,3.12
2023-05-09T15:08:17.435Z,2.34
2023-05-09T15:09:17.432Z,2.07
2023-05-09T15:10:18.080Z,2.26
2023-05-09T15:11:17.430Z,2.57
2023-05-09T15:12:17.431Z,2.56
2023-05-09T15:13:17.445Z,2.31
2023-05-09T15:14:17.437Z,2.49
2023-05-09T15:15:17.451Z,2.29
2023-05-09T15:16:17.459Z,2.33
2023-05-09T15:17:17.433Z,2.45
2023-05-09T15:18:17.441Z,3.03
2023-05-09T15:19:17.442Z,2.72
2023-05-09T15:20:17.858Z,2.53
2023-05-09T15:21:17.458Z,2.68
2023-05-09T15:22:17.540Z,2.22
2023-05-09T15:23:17.452Z,2.20
2023-05-09T15:24:17.401Z,2.19
2023-05-09T15:25:17.440Z,1.72
2023-05-09T15:26:17.397Z,2.49
2023-05-09T15:27:17.382Z,2.04
2023-05-09T15:28:17.388Z,2.12
2023-05-09T15:29:17.389Z,2.67
2023-05-09T15:30:17.519Z,1.73
2023-05-09T15:31:17.440Z,2.31
2023-05-09T15:32:17.393Z,2.29
2023-05-09T15:33:17.395Z,2.11
2023-05-09T15:34:17.392Z,2.08
2023-05-09T15:35:17.395Z,2.26
2023-05-09T15:36:17.403Z,2.19
2023-05-09T15:37:17.397Z,1.98
2023-05-09T15:38:17.533Z,2.70
2023-05-09T15:39:17.406Z,2.41
2023-05-09T15:40:17.613Z,2.45
2023-05-09T15:41:17.420Z,2.05
2023-05-09T15:42:17.426Z,2.64
2023-05-09T15:43:17.427Z,2.41
2023-05-09T15:44:17.438Z,2.24
2023-05-09T15:45:18.373Z,2.18
2023-05-09T15:46:17.562Z,2.19
2023-05-09T15:47:17.451Z,2.32
2023-05-09T15:48:17.459Z,1.91
2023-05-09T15:49:17.465Z,1.96
2023-05-09T15:50:17.679Z,1.79
2023-05-09T15:51:17.480Z,1.80
2023-05-09T15:52:17.495Z,2.26
2023-05-09T15:53:17.504Z,1.89
2023-05-09T15:54:17.639Z,1.86
2023-05-09T15:55:17.551Z,2.54
2023-05-09T15:56:17.525Z,2.48
2023-05-09T15:57:17.549Z,2.12
2023-05-09T15:58:17.545Z,2.34
2023-05-09T15:59:17.544Z,2.03
2023-05-09T16:00:17.832Z,2.17
2023-05-09T16:01:17.589Z,2.65
2023-05-09T16:02:17.614Z,2.09
2023-05-09T16:03:17.665Z,1.72
2023-05-09T16:04:17.565Z,2.51
2023-05-09T16:05:17.574Z,2.08
2023-05-09T16:06:17.567Z,2.12
2023-05-09T16:07:17.566Z,1.75
2023-05-09T16:08:17.563Z,1.98
2023-05-09T16:09:17.574Z,2.53
2023-05-09T16:10:17.881Z,1.99
2023-05-09T16:11:17.573Z,2.22
2023-05-09T16:12:17.577Z,2.08
2023-05-09T16:13:17.756Z,1.89
2023-05-09T16:14:18.004Z,1.87
2023-05-09T16:15:17.583Z,1.89
2023-05-09T16:16:17.614Z,2.18
2023-05-09T16:17:17.599Z,2.14
2023-05-09T16:18:17.597Z,2.71
2023-05-09T16:19:17.599Z,2.11
2023-05-09T16:20:17.827Z,2.18
2023-05-09T16:21:17.609Z,2.26
2023-05-09T16:22:17.645Z,2.10
2023-05-09T16:23:17.613Z,2.27
2023-05-09T16:24:17.605Z,2.26
2023-05-09T16:25:17.648Z,2.31
2023-05-09T16:26:17.737Z,2.16
2023-05-09T16:27:17.639Z,1.99
2023-05-09T16:28:17.644Z,2.24
2023-05-09T16:29:17.657Z,2.00
2023-05-09T16:30:17.892Z,2.00
2023-05-09T16:31:17.810Z,2.02
2023-05-09T16:32:17.735Z,2.15
2023-05-09T16:33:17.750Z,1.81
2023-05-09T16:34:17.778Z,2.19
2023-05-09T16:35:17.790Z,2.34
2023-05-09T16:36:17.856Z,2.22
2023-05-09T16:37:17.842Z,2.38
2023-05-09T16:38:17.876Z,2.39
2023-05-09T16:39:17.894Z,2.37
2023-05-09T16:40:18.151Z,1.82
2023-05-09T16:41:17.932Z,1.89
2023-05-09T16:42:17.975Z,2.18
2023-05-09T16:43:17.970Z,2.00
2023-05-09T16:44:17.995Z,1.83
2023-05-09T16:45:18.017Z,2.65
2023-05-09T16:46:18.105Z,1.68
2023-05-09T16:47:18.174Z,2.28
2023-05-09T16:48:18.081Z,1.91
2023-05-09T16:49:18.122Z,1.93
2023-05-09T16:50:18.209Z,2.20
2023-05-09T16:51:18.153Z,2.02
2023-05-09T16:52:18.166Z,1.89
2023-05-09T16:53:18.191Z,1.84
2023-05-09T16:54:18.212Z,2.08
2023-05-09T16:55:18.244Z,1.98
2023-05-09T16:56:18.269Z,2.24
2023-05-09T16:57:18.290Z,1.86
2023-05-09T16:58:18.434Z,2.32
2023-05-09T16:59:18.339Z,1.82
2023-05-09T17:00:18.366Z,2.30
2023-05-09T17:01:18.438Z,1.90
2023-05-09T17:02:18.423Z,2.07
2023-05-09T17:03:18.435Z,1.93
2023-05-09T17:04:18.542Z,1.95
2023-05-09T17:05:18.489Z,2.01
2023-05-09T17:06:18.528Z,2.47
2023-05-09T17:07:18.545Z,1.88
2023-05-09T17:08:18.582Z,1.86
2023-05-09T17:09:18.625Z,2.12
2023-05-09T17:10:18.725Z,2.26
2023-05-09T17:11:18.667Z,1.99
2023-05-09T17:12:18.697Z,1.88
2023-05-09T17:13:18.763Z,2.30
2023-05-09T17:14:18.873Z,2.00
2023-05-09T17:15:18.787Z,2.02
2023-05-09T17:16:18.849Z,2.14
2023-05-09T17:17:18.875Z,1.88
2023-05-09T17:18:29.254Z,1.80
2023-05-09T17:19:18.856Z,2.11
2023-05-09T17:20:18.841Z,1.69
2023-05-09T17:21:18.875Z,1.69
2023-05-09T17:22:18.875Z,1.74
2023-05-09T17:23:18.876Z,2.14
2023-05-09T17:24:18.869Z,1.71
2023-05-09T17:25:18.870Z,2.08
2023-05-09T17:26:18.898Z,1.98
2023-05-09T17:27:18.892Z,2.17
2023-05-09T17:28:18.896Z,1.83
2023-05-09T17:29:18.899Z,2.36
2023-05-09T17:30:21.322Z,2.02
2023-05-09T17:31:19.006Z,2.13
2023-05-09T17:32:18.926Z,1.69
2023-05-09T17:33:18.931Z,1.79
2023-05-09T17:34:18.938Z,1.74
2023-05-09T17:35:18.949Z,1.92
2023-05-09T17:36:18.963Z,2.02
2023-05-09T17:37:18.974Z,1.39
2023-05-09T17:38:18.962Z,1.92
2023-05-09T17:39:18.972Z,1.87
2023-05-09T17:40:18.974Z,1.49
2023-05-09T17:41:18.990Z,1.89
2023-05-09T17:42:18.989Z,1.77
2023-05-09T17:44:17.985Z,1.74
2023-05-09T17:45:19.015Z,2.14
2023-05-09T17:46:19.149Z,2.04
2023-05-09T17:47:19.002Z,2.23
2023-05-09T17:48:19.025Z,1.82
2023-05-09T17:49:19.027Z,1.78
2023-05-09T17:50:19.007Z,2.12
2023-05-09T17:51:19.050Z,2.05
2023-05-09T17:52:19.054Z,2.27
2023-05-09T17:53:19.095Z,2.16
2023-05-09T17:54:19.113Z,1.98
2023-05-09T17:55:19.144Z,1.69
2023-05-09T17:56:19.188Z,1.56
2023-05-09T17:57:19.222Z,2.03
2023-05-09T17:58:19.248Z,1.98
2023-05-09T17:59:19.280Z,1.67
2023-05-09T18:00:19.315Z,1.81
2023-05-09T18:01:19.352Z,1.57
2023-05-09T18:02:19.507Z,1.87
2023-05-09T18:03:19.533Z,1.94
2023-05-09T18:04:19.445Z,2.09
2023-05-09T18:05:19.493Z,1.98
2023-05-09T18:06:19.533Z,2.01
2023-05-09T18:07:19.571Z,1.80
2023-05-09T18:08:19.599Z,1.97
2023-05-09T18:09:19.642Z,2.29
2023-05-09T18:10:19.683Z,1.58
2023-05-09T18:11:19.712Z,2.14
2023-05-09T18:12:19.763Z,2.16
2023-05-09T18:13:19.855Z,1.75
2023-05-09T18:14:19.836Z,1.92
2023-05-09T18:15:19.893Z,1.85
2023-05-09T18:16:19.978Z,1.76
2023-05-09T18:17:19.959Z,1.91
2023-05-09T18:18:20.171Z,2.00
2023-05-09T18:19:20.044Z,1.45
2023-05-09T18:20:20.081Z,2.14
2023-05-09T18:21:20.118Z,2.06
2023-05-09T18:22:20.169Z,2.23
2023-05-09T18:23:20.215Z,1.92
2023-05-09T18:24:20.231Z,1.81
2023-05-09T18:25:20.278Z,2.33
2023-05-09T18:26:20.312Z,2.08
2023-05-09T18:27:20.354Z,1.57
2023-05-09T18:28:20.389Z,1.90
2023-05-09T18:29:20.435Z,2.00
2023-05-09T18:30:20.470Z,1.95
2023-05-09T18:31:20.534Z,2.13
2023-05-09T18:32:20.562Z,1.98
2023-05-09T18:33:20.604Z,1.73
2023-05-09T18:34:20.766Z,1.65
2023-05-09T18:35:20.692Z,2.21
2023-05-09T18:36:20.737Z,1.81
2023-05-09T18:37:20.784Z,1.96
2023-05-09T18:38:20.850Z,1.66
2023-05-09T18:39:20.859Z,1.19
2023-05-09T18:40:20.903Z,1.91
2023-05-09T18:41:21.436Z,2.15
2023-05-09T18:42:20.994Z,2.18
2023-05-09T18:43:21.028Z,1.73
2023-05-09T18:44:21.066Z,1.82
2023-05-09T18:45:21.125Z,2.19
2023-05-09T18:46:21.424Z,1.93
2023-05-09T18:47:21.197Z,1.80
2023-05-09T18:48:21.237Z,1.54
2023-05-09T18:49:21.280Z,1.92
2023-05-09T18:50:21.449Z,1.82
2023-05-09T18:51:21.372Z,1.69
2023-05-09T18:52:21.407Z,1.66
2023-05-09T18:53:21.446Z,1.60
2023-05-09T18:54:21.484Z,1.82
2023-05-09T18:55:22.385Z,1.88
2023-05-09T18:56:21.586Z,1.92
2023-05-09T18:57:21.645Z,1.80
2023-05-09T18:58:21.697Z,2.19
2023-05-09T18:59:21.729Z,1.62
2023-05-09T19:00:21.780Z,1.77
2023-05-09T19:01:21.855Z,1.97
2023-05-09T19:02:22.079Z,1.81
2023-05-09T19:03:21.935Z,1.97
2023-05-09T19:04:22.049Z,1.95
2023-05-09T19:05:22.021Z,2.00
2023-05-09T19:06:22.191Z,2.32
2023-05-09T19:07:22.114Z,1.63
2023-05-09T19:08:22.167Z,2.09
2023-05-09T19:09:22.250Z,1.80
2023-05-09T19:10:22.286Z,2.00
2023-05-09T19:11:22.325Z,1.91
2023-05-09T19:12:22.413Z,2.41
2023-05-09T19:13:22.580Z,1.78
2023-05-09T19:14:22.474Z,1.85
2023-05-09T19:15:22.528Z,2.15
2023-05-09T19:16:22.690Z,1.95
2023-05-09T19:17:22.656Z,2.14
2023-05-09T19:18:22.694Z,2.07
2023-05-09T19:19:22.738Z,1.69
2023-05-09T19:20:22.789Z,1.73
2023-05-09T19:21:22.828Z,1.92
2023-05-09T19:22:22.993Z,1.89
2023-05-09T19:23:22.928Z,1.56
2023-05-09T19:24:22.999Z,1.74
2023-05-09T19:25:23.009Z,2.06
2023-05-09T19:26:23.050Z,1.83
2023-05-09T19:27:23.107Z,1.84
2023-05-09T19:28:23.169Z,1.62
2023-05-09T19:29:23.181Z,2.01
2023-05-09T19:30:23.240Z,1.93
2023-05-09T19:31:23.301Z,1.79
2023-05-09T19:32:23.397Z,1.85
2023-05-09T19:33:23.384Z,1.52
2023-05-09T19:34:23.422Z,2.02
2023-05-09T19:35:23.469Z,2.13
2023-05-09T19:36:23.513Z,2.10
2023-05-09T19:37:23.568Z,2.01
2023-05-09T19:38:23.689Z,1.84
2023-05-09T19:39:23.665Z,1.82
2023-05-09T19:40:23.719Z,1.44
2023-05-09T19:41:23.770Z,2.04
2023-05-09T19:42:23.821Z,2.08
2023-05-09T19:43:23.882Z,1.98
2023-05-09T19:44:23.931Z,1.73
2023-05-09T19:45:23.976Z,1.88
2023-05-09T19:46:24.050Z,2.17
2023-05-09T19:47:24.114Z,1.99
2023-05-09T19:48:24.161Z,2.00
2023-05-09T19:49:24.204Z,1.70
2023-05-09T19:50:24.245Z,1.66
2023-05-09T19:51:24.298Z,1.81
2023-05-09T19:52:24.352Z,1.89
2023-05-09T19:53:24.412Z,1.93
2023-05-09T19:54:24.484Z,2.13
2023-05-09T19:55:24.502Z,1.86
2023-05-09T19:56:24.563Z,1.74
2023-05-09T19:57:24.608Z,2.23
2023-05-09T19:58:24.663Z,1.87
2023-05-09T19:59:24.727Z,1.88